Time;durP1;ratioP1;P1;durP2;ratioP2;P2;SDS_P1;SDS_P2;PMS_P1;PMS_P2;Temp;Humidity;BMP_temperature;BMP_pressure;BME280_temperature;BME280_humidity;BME280_pressure;Samples;Min_cycle;Max_cycle;Signal;HPM_P1;HPM_P2
2021/04/17 00:01:40;;;;;;;8.30;5.67;;;;;;;8.48;78.21;99263.89;1680117;84;21602;-72
2021/04/17 00:04:09;;;;;;;9.83;6.72;;;;;;;8.43;78.42;99260.22;1651188;85;21211;-72
2021/04/17 00:06:36;;;;;;;14.98;9.45;;;;;;;8.38;78.57;99258.38;1651213;87;21221;-72
2021/04/17 00:09:09;;;;;;;17.75;11.08;;;;;;;8.42;78.51;99259.01;1651317;87;21193;-72
2021/04/17 00:11:40;;;;;;;14.55;9.65;;;;;;;8.55;78.28;99255.91;1660845;85;21610;-73
2021/04/17 00:14:10;;;;;;;13.85;9.20;;;;;;;8.58;78.31;99255.70;1678651;84;21308;-73
2021/04/17 00:16:38;;;;;;;18.57;10.70;;;;;;;8.57;78.42;99267.20;1678910;85;21650;-72
2021/04/17 00:19:05;;;;;;;15.63;9.28;;;;;;;8.53;78.34;99261.78;1678750;85;21640;-72
2021/04/17 00:21:35;;;;;;;11.00;7.25;;;;;;;8.57;78.20;99263.24;1715290;83;21288;-73
2021/04/17 00:24:02;;;;;;;15.13;9.15;;;;;;;8.69;77.84;99274.23;1722916;83;21673;-72
2021/04/17 00:26:30;;;;;;;16.40;9.33;;;;;;;8.64;77.87;99266.28;1717650;83;21623;-72
2021/04/17 00:28:59;;;;;;;12.93;7.90;;;;;;;8.55;78.21;99265.62;1713517;84;21175;-72
2021/04/17 00:31:26;;;;;;;12.15;7.12;;;;;;;8.56;78.30;99272.58;1713759;84;21754;-72
2021/04/17 00:33:53;;;;;;;9.90;7.15;;;;;;;8.68;77.96;99262.48;1686551;83;21305;-72
2021/04/17 00:36:20;;;;;;;10.82;7.40;;;;;;;8.68;78.02;99261.16;1685152;85;21195;-72
2021/04/17 00:38:47;;;;;;;8.05;5.67;;;;;;;8.60;78.06;99270.92;1684624;85;21195;-72
2021/04/17 00:41:15;;;;;;;7.97;5.95;;;;;;;8.49;78.14;99266.41;1684428;84;21207;-72
2021/04/17 00:43:43;;;;;;;6.58;5.62;;;;;;;8.47;77.86;99266.16;1707044;84;21177;-72
2021/04/17 00:46:11;;;;;;;6.65;4.70;;;;;;;8.55;77.46;99270.40;1713050;84;21472;-72
2021/04/17 00:48:42;;;;;;;6.92;4.90;;;;;;;8.50;77.26;99274.69;1688982;84;21203;-72
2021/04/17 00:51:11;;;;;;;6.12;4.40;;;;;;;8.37;77.25;99266.73;1713120;84;21306;-72
2021/04/17 00:53:39;;;;;;;5.65;4.37;;;;;;;8.31;77.37;99271.13;1689245;84;21608;-72
2021/04/17 00:56:10;;;;;;;5.42;4.40;;;;;;;8.41;77.06;99277.08;1684506;85;21175;-73
2021/04/17 00:58:38;;;;;;;6.42;4.80;;;;;;;8.42;76.78;99271.70;1684340;85;21159;-72
2021/04/17 01:01:06;;;;;;;6.75;4.60;;;;;;;8.29;77.03;99279.60;1686280;84;21156;-72
2021/04/17 01:03:48;;;;;;;6.42;5.08;;;;;;;8.17;77.35;99271.21;1684382;84;21217;-72
2021/04/17 01:06:36;;;;;;;6.42;5.10;;;;;;;8.10;77.65;99277.86;1691994;84;21718;-72
2021/04/17 01:09:25;;;;;;;6.30;5.20;;;;;;;8.25;77.28;99281.22;1711381;84;21278;-72
2021/04/17 01:12:13;;;;;;;6.42;5.15;;;;;;;8.15;77.14;99278.39;1668433;84;21600;-72
2021/04/17 01:14:43;;;;;;;6.50;4.95;;;;;;;7.98;77.23;99288.73;1690488;84;21171;-73
2021/04/17 01:17:11;;;;;;;5.37;4.53;;;;;;;7.88;77.17;99283.25;1703071;84;21188;-72
2021/04/17 01:19:44;;;;;;;5.97;4.72;;;;;;;7.96;76.92;99283.57;1688692;84;21187;-72
2021/04/17 01:22:21;;;;;;;5.45;4.67;;;;;;;7.90;76.85;99291.87;1705260;84;21143;-72
2021/04/17 01:25:05;;;;;;;6.15;4.58;;;;;;;7.74;77.07;99286.80;1713100;84;21605;-72
2021/04/17 01:27:32;;;;;;;5.42;4.33;;;;;;;7.56;77.23;99288.85;1694810;83;21179;-73
2021/04/17 01:30:00;;;;;;;5.55;4.28;;;;;;;7.53;77.18;99287.27;1687434;84;21557;-72
2021/04/17 01:32:28;;;;;;;5.67;4.45;;;;;;;7.56;77.21;99287.53;1669924;84;21224;-72
2021/04/17 01:34:55;;;;;;;6.45;5.20;;;;;;;7.44;77.51;99300.16;1690380;84;21171;-73
2021/04/17 01:37:28;;;;;;;6.45;5.10;;;;;;;7.32;77.83;99301.32;1678360;85;21164;-73
2021/04/17 01:39:56;;;;;;;12.82;8.50;;;;;;;7.36;77.83;99300.17;1676521;85;21167;-72
2021/04/17 01:42:23;;;;;;;7.00;5.25;;;;;;;7.47;77.50;99298.67;1678836;85;21128;-72
2021/04/17 01:44:51;;;;;;;7.00;5.60;;;;;;;7.30;77.79;99312.44;1678906;85;21199;-72
2021/04/17 01:47:18;;;;;;;10.05;5.85;;;;;;;7.12;78.29;99313.09;1678834;85;21237;-72
2021/04/17 01:49:49;;;;;;;5.17;3.95;;;;;;;7.10;78.61;99311.51;1678870;85;21210;-72
2021/04/17 01:52:21;;;;;;;6.35;4.25;;;;;;;7.25;78.38;99303.98;1678880;85;21181;-72
2021/04/17 01:54:54;;;;;;;8.10;5.50;;;;;;;7.27;78.14;99305.20;1678924;85;21675;-72
2021/04/17 01:57:25;;;;;;;6.67;4.90;;;;;;;7.09;78.43;99311.99;1679002;85;21623;-72
2021/04/17 01:59:55;;;;;;;6.35;4.90;;;;;;;7.04;78.80;99301.75;1678948;85;21314;-72
2021/04/17 02:02:22;;;;;;;6.42;4.83;;;;;;;7.19;78.66;99307.00;1678909;85;21361;-72
2021/04/17 02:04:51;;;;;;;5.70;4.78;;;;;;;7.25;78.50;99311.88;1679004;85;21175;-72
2021/04/17 02:07:18;;;;;;;5.30;4.55;;;;;;;7.24;78.53;99308.88;1696019;84;21143;-72
2021/04/17 02:09:47;;;;;;;5.45;4.40;;;;;;;7.29;78.55;99308.56;1706519;84;21128;-72
2021/04/17 02:12:14;;;;;;;5.28;4.67;;;;;;;7.41;78.13;99309.58;1706614;84;21305;-72
2021/04/17 02:14:41;;;;;;;5.00;4.30;;;;;;;7.34;78.19;99309.11;1707169;84;21305;-72
2021/04/17 02:17:19;;;;;;;4.67;3.65;;;;;;;7.16;78.52;99307.18;1707118;84;21751;-72
2021/04/17 02:20:01;;;;;;;6.35;4.90;;;;;;;7.00;78.86;99310.78;1705251;84;21195;-72
2021/04/17 02:22:29;;;;;;;6.35;4.95;;;;;;;7.01;79.08;99313.78;1707373;84;21175;-71
2021/04/17 02:24:57;;;;;;;5.80;4.92;;;;;;;7.19;78.88;99317.52;1707148;84;21151;-72
2021/04/17 02:27:24;;;;;;;5.03;3.65;;;;;;;7.21;78.96;99318.25;1712758;84;21599;-72
2021/04/17 02:29:52;;;;;;;7.00;4.35;;;;;;;7.14;79.13;99327.01;1715320;84;21158;-71
2021/04/17 02:32:19;;;;;;;7.25;4.97;;;;;;;7.11;79.04;99324.58;1715461;83;21318;-72
2021/04/17 02:34:49;;;;;;;5.95;4.83;;;;;;;7.21;78.59;99336.66;1715202;83;21175;-71
2021/04/17 02:37:16;;;;;;;7.08;5.62;;;;;;;7.15;78.90;99335.28;1715270;83;21715;-71
2021/04/17 02:39:44;;;;;;;10.03;6.87;;;;;;;7.13;79.12;99336.31;1715406;83;21322;-72
2021/04/17 02:42:11;;;;;;;10.75;7.70;;;;;;;7.18;79.26;99334.23;1715246;84;21370;-72
2021/04/17 02:44:39;;;;;;;11.03;7.83;;;;;;;7.38;78.94;99339.08;1715430;84;21187;-74
2021/04/17 02:47:06;;;;;;;12.60;8.80;;;;;;;7.43;78.96;99337.48;1715194;84;21198;-72
2021/04/17 02:49:35;;;;;;;14.25;9.63;;;;;;;7.43;78.98;99340.56;1715155;84;21551;-72
2021/04/17 02:52:04;;;;;;;13.13;9.38;;;;;;;7.42;78.81;99350.26;1678789;85;21200;-72
2021/04/17 02:54:33;;;;;;;13.85;9.80;;;;;;;7.55;78.51;99344.56;1678917;85;21576;-74
2021/04/17 02:57:00;;;;;;;14.15;9.73;;;;;;;7.56;78.39;99344.11;1678787;85;21231;-72
2021/04/17 02:59:28;;;;;;;14.65;9.60;;;;;;;7.50;78.49;99346.65;1678741;85;21172;-73
2021/04/17 03:01:56;;;;;;;12.58;8.95;;;;;;;7.49;78.53;99355.97;1678661;85;21592;-74
2021/04/17 03:04:24;;;;;;;13.95;9.60;;;;;;;7.63;78.08;99350.65;1678725;85;21239;-72
2021/04/17 03:06:51;;;;;;;14.47;10.18;;;;;;;7.65;77.94;99363.73;1667516;85;21603;-73
2021/04/17 03:09:18;;;;;;;14.70;10.28;;;;;;;7.54;78.00;99363.95;1651600;87;21209;-73
2021/04/17 03:11:45;;;;;;;12.13;9.55;;;;;;;7.47;78.19;99371.02;1651547;87;21222;-72
2021/04/17 03:14:12;;;;;;;12.63;9.93;;;;;;;7.50;78.16;99365.55;1651764;87;21508;-73
2021/04/17 03:16:40;;;;;;;15.30;10.90;;;;;;;7.59;77.68;99368.91;1651651;87;21190;-73
2021/04/17 03:19:08;;;;;;;14.45;10.72;;;;;;;7.52;77.75;99372.41;1651620;87;21204;-73
2021/04/17 03:21:36;;;;;;;13.53;10.32;;;;;;;7.45;77.95;99375.05;1651754;87;21721;-73
2021/04/17 03:24:04;;;;;;;14.38;11.40;;;;;;;7.50;77.70;99369.50;1651374;87;21641;-73
2021/04/17 03:26:32;;;;;;;15.00;11.45;;;;;;;7.55;77.50;99375.31;1650730;86;21347;-73
2021/04/17 03:29:00;;;;;;;16.52;11.80;;;;;;;7.48;77.64;99381.89;1648566;87;21154;-74
2021/04/17 03:31:28;;;;;;;17.98;11.28;;;;;;;7.37;77.88;99379.47;1648487;87;21177;-72
2021/04/17 03:33:55;;;;;;;16.55;11.60;;;;;;;7.47;77.61;99381.55;1648711;87;21327;-73
2021/04/17 03:36:22;;;;;;;15.78;11.95;;;;;;;7.46;77.65;99378.05;1648592;87;21332;-73
2021/04/17 03:38:49;;;;;;;15.98;11.25;;;;;;;7.39;77.84;99384.63;1648687;87;21206;-73
2021/04/17 03:41:17;;;;;;;13.55;10.95;;;;;;;7.30;77.98;99390.03;1648624;87;21752;-72
2021/04/17 03:43:44;;;;;;;13.40;10.32;;;;;;;7.38;77.79;99390.38;1648766;87;21784;-72
2021/04/17 03:46:12;;;;;;;12.78;10.00;;;;;;;7.45;77.56;99396.58;1648496;86;21189;-72
2021/04/17 03:48:39;;;;;;;15.25;10.35;;;;;;;7.38;77.62;99407.48;1648774;87;21316;-72
2021/04/17 03:51:06;;;;;;;12.00;9.30;;;;;;;7.31;77.78;99411.42;1648566;87;21174;-72
2021/04/17 03:53:33;;;;;;;12.85;9.35;;;;;;;7.37;77.62;99410.21;1648436;87;21359;-72
2021/04/17 03:56:02;;;;;;;12.55;9.63;;;;;;;7.47;77.25;99418.38;1648543;87;21166;-72
2021/04/17 03:58:29;;;;;;;12.30;9.43;;;;;;;7.41;77.33;99413.50;1648707;87;21736;-73
2021/04/17 04:00:59;;;;;;;11.57;9.00;;;;;;;7.35;77.47;99421.29;1648602;86;21146;-73
2021/04/17 04:03:27;;;;;;;11.12;8.43;;;;;;;7.37;77.41;99426.00;1649059;85;21850;-73
2021/04/17 04:05:54;;;;;;;12.23;9.15;;;;;;;7.51;77.12;99418.08;1649012;85;21216;-73
2021/04/17 04:08:26;;;;;;;12.35;9.48;;;;;;;7.49;77.23;99423.06;1650766;85;21712;-73
2021/04/17 04:10:54;;;;;;;9.83;7.45;;;;;;;7.42;77.53;99425.69;1675843;85;21318;-74
2021/04/17 04:13:21;;;;;;;10.93;8.13;;;;;;;7.36;77.71;99425.12;1650188;85;21137;-73
2021/04/17 04:15:49;;;;;;;12.03;8.85;;;;;;;7.39;77.60;99428.05;1676040;85;21317;-73
2021/04/17 04:18:16;;;;;;;11.25;8.53;;;;;;;7.52;77.26;99434.73;1676033;85;21592;-73
2021/04/17 04:20:44;;;;;;;11.40;8.23;;;;;;;7.47;77.33;99438.12;1676057;85;22179;-73
2021/04/17 04:23:11;;;;;;;9.65;6.95;;;;;;;7.41;77.37;99441.12;1675961;85;21204;-73
2021/04/17 04:25:38;;;;;;;8.90;7.70;;;;;;;7.40;77.32;99440.75;1676113;85;21673;-73
2021/04/17 04:28:07;;;;;;;10.20;8.30;;;;;;;7.49;76.79;99442.34;1675860;85;21247;-73
2021/04/17 04:30:34;;;;;;;9.13;7.55;;;;;;;7.43;76.86;99443.17;1676313;85;21212;-73
2021/04/17 04:33:03;;;;;;;8.68;6.80;;;;;;;7.35;77.04;99445.83;1655269;85;21160;-74
2021/04/17 04:35:30;;;;;;;10.13;7.80;;;;;;;7.35;77.03;99447.14;1648697;87;21362;-74
2021/04/17 04:37:58;;;;;;;8.73;7.15;;;;;;;7.44;76.82;99444.87;1648509;87;21208;-74
2021/04/17 04:40:25;;;;;;;10.35;7.53;;;;;;;7.37;77.03;99458.40;1648715;87;21378;-74
2021/04/17 04:42:52;;;;;;;8.95;6.60;;;;;;;7.28;77.29;99457.66;1648813;87;21750;-74
2021/04/17 04:45:19;;;;;;;8.70;6.58;;;;;;;7.32;77.14;99453.89;1648793;87;21342;-74
2021/04/17 04:47:46;;;;;;;9.48;7.45;;;;;;;7.43;76.91;99454.56;1649020;87;21354;-75
2021/04/17 04:50:14;;;;;;;8.00;6.75;;;;;;;7.38;77.09;99461.89;1648807;86;21644;-74
2021/04/17 04:52:44;;;;;;;8.15;6.55;;;;;;;7.32;77.20;99470.98;1648635;86;21713;-74
2021/04/17 04:55:12;;;;;;;9.10;7.17;;;;;;;7.34;77.20;99462.55;1648914;87;21730;-74
2021/04/17 04:57:39;;;;;;;9.93;7.12;;;;;;;7.49;76.87;99467.34;1649288;87;21203;-74
2021/04/17 05:03:04;;;;;;;10.13;6.83;;;;;;;7.46;77.30;99466.68;1750514;79;22774;-73
2021/04/17 05:05:31;;;;;;;9.95;6.92;;;;;;;7.47;77.14;99467.89;1723514;82;21332;-74
2021/04/17 05:08:01;;;;;;;9.95;7.17;;;;;;;7.63;76.87;99474.34;1723091;83;21282;-74
2021/04/17 05:10:28;;;;;;;9.35;6.70;;;;;;;7.62;76.78;99474.00;1722840;83;21174;-74
2021/04/17 05:12:56;;;;;;;8.03;6.05;;;;;;;7.58;76.79;99480.85;1685771;85;21314;-74
2021/04/17 05:15:25;;;;;;;10.88;7.40;;;;;;;7.60;76.75;99481.13;1661998;86;21199;-74
2021/04/17 05:17:56;;;;;;;8.33;6.50;;;;;;;7.75;76.45;99486.37;1682540;85;21647;-74
2021/04/17 05:20:24;;;;;;;8.28;6.70;;;;;;;7.73;76.36;99485.16;1661943;86;21395;-72
2021/04/17 05:22:52;;;;;;;8.08;6.00;;;;;;;7.63;76.38;99490.14;1682537;85;21337;-74
2021/04/17 05:25:21;;;;;;;9.00;7.05;;;;;;;7.58;76.34;99486.12;1661919;86;21526;-74
2021/04/17 05:27:48;;;;;;;8.25;6.60;;;;;;;7.70;76.07;99490.14;1671971;85;21218;-74
2021/04/17 05:30:17;;;;;;;9.30;6.75;;;;;;;7.76;75.96;99495.96;1656131;87;21300;-74
2021/04/17 05:32:45;;;;;;;9.60;6.67;;;;;;;7.70;75.86;99498.04;1656136;87;21670;-74
2021/04/17 05:35:13;;;;;;;8.93;6.55;;;;;;;7.64;76.05;99498.41;1656352;87;21178;-74
2021/04/17 05:37:40;;;;;;;7.53;6.03;;;;;;;7.72;75.92;99501.88;1656274;87;21781;-74
2021/04/17 05:40:10;;;;;;;8.40;6.20;;;;;;;7.81;75.52;99500.02;1663129;86;21219;-74
2021/04/17 05:42:37;;;;;;;7.37;5.90;;;;;;;7.77;75.82;99500.30;1656376;87;21190;-74
2021/04/17 05:45:07;;;;;;;7.08;5.78;;;;;;;7.71;76.12;99501.50;1663187;86;21217;-74
2021/04/17 05:47:34;;;;;;;9.38;6.47;;;;;;;7.80;76.11;99506.66;1656183;87;21693;-74
2021/04/17 05:50:02;;;;;;;8.60;6.42;;;;;;;7.94;75.87;99516.33;1663268;86;21308;-74
2021/04/17 05:52:30;;;;;;;9.18;6.67;;;;;;;7.92;75.74;99517.75;1656094;87;21182;-74
2021/04/17 05:54:57;;;;;;;9.80;6.05;;;;;;;7.76;75.81;99499.42;1656139;87;21203;-74
2021/04/17 05:57:24;;;;;;;7.47;5.87;;;;;;;7.83;75.94;99524.92;1663318;86;21630;-74
2021/04/17 05:59:51;;;;;;;8.58;6.67;;;;;;;7.93;75.68;99519.91;1656355;87;21163;-73
2021/04/17 06:02:19;;;;;;;6.95;5.30;;;;;;;7.95;75.76;99526.77;1660690;86;21196;-75
2021/04/17 06:04:47;;;;;;;7.30;5.70;;;;;;;7.87;76.09;99531.20;1668686;86;21181;-73
2021/04/17 06:07:14;;;;;;;6.45;5.50;;;;;;;7.85;76.34;99538.81;1665477;86;21212;-74
2021/04/17 06:09:43;;;;;;;8.38;5.62;;;;;;;7.96;75.84;99533.73;1713538;84;21160;-74
2021/04/17 06:12:13;;;;;;;7.42;5.42;;;;;;;8.04;75.33;99544.64;1713614;84;21179;-75
2021/04/17 06:14:43;;;;;;;5.97;4.67;;;;;;;7.97;75.45;99537.22;1713164;84;21128;-75
2021/04/17 06:17:11;;;;;;;6.42;5.00;;;;;;;7.89;75.46;99536.39;1713404;84;21668;-75
2021/04/17 06:19:40;;;;;;;7.10;5.15;;;;;;;7.90;75.33;99539.38;1707760;84;21167;-73
2021/04/17 06:22:08;;;;;;;7.20;5.30;;;;;;;7.98;75.18;99533.63;1684632;84;21647;-73
2021/04/17 06:24:36;;;;;;;6.83;5.33;;;;;;;7.97;75.48;99546.44;1684621;85;21206;-73
2021/04/17 06:27:05;;;;;;;7.37;4.72;;;;;;;7.93;75.76;99540.52;1673564;84;21321;-73
2021/04/17 06:29:32;;;;;;;7.05;4.70;;;;;;;7.96;75.93;99548.70;1655230;86;21206;-74
2021/04/17 06:32:01;;;;;;;6.10;4.70;;;;;;;8.11;75.74;99549.52;1673302;84;21182;-74
2021/04/17 06:34:28;;;;;;;8.03;4.72;;;;;;;8.22;75.47;99547.02;1695286;84;21177;-74
2021/04/17 06:36:56;;;;;;;6.10;4.75;;;;;;;8.22;75.27;99553.61;1663939;86;21742;-74
2021/04/17 06:39:24;;;;;;;5.58;4.00;;;;;;;8.24;75.14;99548.27;1656994;86;21579;-74
2021/04/17 06:41:53;;;;;;;14.95;4.37;;;;;;;8.24;75.15;99542.52;1661779;86;21345;-74
2021/04/17 06:44:21;;;;;;;5.42;3.87;;;;;;;8.34;74.82;99537.03;1651293;86;21198;-74
2021/04/17 06:46:50;;;;;;;6.20;4.08;;;;;;;8.51;74.42;99544.34;1669667;84;21209;-74
2021/04/17 06:49:17;;;;;;;5.50;3.95;;;;;;;8.50;74.62;99546.61;1640788;87;21591;-74
2021/04/17 06:51:48;;;;;;;5.28;3.90;;;;;;;8.52;74.70;99559.22;1668543;86;21205;-74
2021/04/17 06:54:20;;;;;;;5.42;3.85;;;;;;;8.54;74.93;99546.77;1684599;85;21159;-74
2021/04/17 06:56:51;;;;;;;4.03;3.13;;;;;;;8.75;74.91;99552.92;1686542;84;21497;-74
2021/04/17 06:59:20;;;;;;;5.65;3.80;;;;;;;8.94;74.30;99557.34;1644284;86;21316;-74
2021/04/17 07:01:49;;;;;;;5.62;4.10;;;;;;;8.98;73.96;99557.50;1661659;86;21270;-73
2021/04/17 07:04:16;;;;;;;5.28;3.62;;;;;;;9.04;73.82;99550.98;1644129;87;21649;-73
2021/04/17 07:06:43;;;;;;;4.62;3.42;;;;;;;8.73;73.39;99511.30;1643481;86;21294;-73
2021/04/17 07:09:13;;;;;;;5.78;4.37;;;;;;;9.09;73.89;99551.98;1636584;87;21177;-74
2021/04/17 07:11:42;;;;;;;10.45;8.35;;;;;;;9.29;73.34;99558.06;1677114;84;21165;-74
2021/04/17 07:14:13;;;;;;;9.58;7.03;;;;;;;9.36;73.52;99559.83;1636292;86;21624;-75
2021/04/17 07:17:02;;;;;;;7.15;5.05;;;;;;;9.40;72.99;99564.41;1686282;85;21316;-74
2021/04/17 07:19:59;;;;;;;5.08;4.17;;;;;;;9.40;72.74;99565.72;1660666;85;21277;-74
2021/04/17 07:22:32;;;;;;;5.35;4.08;;;;;;;9.50;72.67;99565.45;1644235;87;21196;-74
2021/04/17 07:25:12;;;;;;;6.55;4.85;;;;;;;9.63;72.34;99568.95;1644251;87;21617;-74
2021/04/17 07:27:53;;;;;;;6.08;4.12;;;;;;;9.53;71.56;99565.72;1644041;87;21298;-75
2021/04/17 07:30:29;;;;;;;5.10;3.90;;;;;;;9.40;71.87;99573.64;1657531;85;21121;-74
2021/04/17 07:33:17;;;;;;;5.70;3.77;;;;;;;9.42;71.99;99583.14;1644803;85;21637;-72
2021/04/17 07:35:48;;;;;;;7.28;4.95;;;;;;;9.57;71.11;99581.26;1681460;85;21300;-73
2021/04/17 07:38:23;;;;;;;6.67;5.05;;;;;;;9.50;70.79;99584.80;1686567;85;21174;-72
2021/04/17 07:41:06;;;;;;;6.42;4.40;;;;;;;9.47;70.98;99591.59;1633010;87;21217;-72
2021/04/17 07:43:54;;;;;;;;;;;;;;;9.47;70.56;99586.80;1686202;85;21221;-73
2021/04/17 07:46:28;;;;;;;4.00;2.83;;;;;;;9.56;70.48;99584.84;1686836;84;20142;-74
2021/04/17 07:49:19;;;;;;;4.78;3.47;;;;;;;9.62;69.77;99584.42;1644469;87;21168;-74
2021/04/17 07:52:12;;;;;;;4.58;3.47;;;;;;;9.41;69.75;99585.44;1644174;87;21204;-74
2021/04/17 07:55:07;;;;;;;5.25;3.80;;;;;;;9.27;69.87;99587.69;1683557;85;21741;-74
2021/04/17 07:57:39;;;;;;;4.72;3.60;;;;;;;9.17;70.37;99582.17;1685959;85;21626;-73
2021/04/17 08:00:09;;;;;;;7.45;4.03;;;;;;;9.23;70.29;99590.14;1644402;87;21157;-74
2021/04/17 08:02:38;;;;;;;5.67;3.62;;;;;;;9.37;70.11;99587.06;1644007;86;21690;-74
2021/04/17 08:05:09;;;;;;;4.87;3.45;;;;;;;9.45;70.00;99595.28;1702885;84;21108;-74
2021/04/17 08:07:38;;;;;;;4.60;3.37;;;;;;;9.43;68.93;99593.25;1681355;84;21349;-74
2021/04/17 08:10:09;;;;;;;5.17;3.47;;;;;;;9.28;69.07;99602.55;1636822;85;21219;-74
2021/04/17 08:12:42;;;;;;;5.30;3.80;;;;;;;9.24;69.33;99598.44;1658775;86;21306;-73
2021/04/17 08:15:12;;;;;;;5.10;3.60;;;;;;;9.26;69.25;99593.91;1666521;86;21172;-74
2021/04/17 08:17:43;;;;;;;4.85;3.20;;;;;;;9.48;69.33;99597.73;1681407;85;21310;-74
2021/04/17 08:20:15;;;;;;;4.97;3.83;;;;;;;9.67;69.14;99597.32;1681510;85;21147;-74
2021/04/17 08:22:44;;;;;;;5.55;3.87;;;;;;;9.68;69.08;99597.20;1689955;84;21151;-74
2021/04/17 08:25:13;;;;;;;5.05;3.60;;;;;;;9.63;68.35;99592.72;1709710;84;21182;-73
2021/04/17 08:27:40;;;;;;;5.47;4.05;;;;;;;9.57;68.03;99602.38;1709563;83;21218;-74
2021/04/17 08:30:09;;;;;;;6.25;3.70;;;;;;;9.51;68.07;99596.19;1690399;84;21181;-74
2021/04/17 08:32:43;;;;;;;5.70;3.40;;;;;;;9.47;68.03;99599.52;1666595;86;21669;-72
2021/04/17 08:35:19;;;;;;;5.25;3.52;;;;;;;9.46;68.09;99603.58;1696149;84;21607;-74
2021/04/17 08:38:04;;;;;;;5.05;3.45;;;;;;;9.59;67.96;99593.89;1709704;84;21191;-73
2021/04/17 08:40:49;;;;;;;5.08;3.50;;;;;;;9.47;68.08;99600.83;1709681;84;21155;-73
2021/04/17 08:43:23;;;;;;;5.30;3.92;;;;;;;9.32;68.58;99608.02;1709637;84;21120;-74
2021/04/17 08:46:13;;;;;;;8.43;4.20;;;;;;;9.26;68.78;99604.47;1700164;84;21658;-73
2021/04/17 08:48:57;;;;;;;5.72;3.55;;;;;;;9.25;69.12;99605.41;1709803;84;21334;-73
2021/04/17 08:51:35;;;;;;;5.65;3.92;;;;;;;9.32;68.90;99604.05;1709646;84;21288;-74
2021/04/17 08:54:09;;;;;;;87.72;64.67;;;;;;;9.44;68.83;99603.69;1707848;84;21311;-74
2021/04/17 08:56:51;;;;;;;37.90;25.00;;;;;;;9.54;69.19;99607.88;1697325;84;21250;-74
2021/04/17 08:59:37;;;;;;;5.92;4.67;;;;;;;9.57;69.00;99601.05;1703708;84;21627;-74
2021/04/17 09:02:13;;;;;;;5.53;4.45;;;;;;;9.57;68.76;99607.66;1709177;83;21175;-73
2021/04/17 09:05:07;;;;;;;6.00;4.70;;;;;;;9.54;69.22;99605.24;1719260;83;21166;-74
2021/04/17 09:07:38;;;;;;;5.33;4.22;;;;;;;9.57;69.10;99599.73;1712151;83;21119;-74
2021/04/17 09:10:31;;;;;;;6.42;4.60;;;;;;;9.68;68.56;99607.77;1723376;83;21143;-74
2021/04/17 09:16:04;;;;;;;7.97;4.92;;;;;;;9.54;68.95;99601.28;1815392;79;23130;-74
2021/04/17 09:18:38;;;;;;;8.43;5.87;;;;;;;9.38;69.20;99609.38;1718712;83;21181;-74
2021/04/17 09:21:22;;;;;;;7.30;5.53;;;;;;;9.41;69.53;99604.37;1724457;83;21198;-73
2021/04/17 09:23:52;;;;;;;6.97;5.28;;;;;;;9.51;69.25;99610.71;1723482;83;21612;-73
2021/04/17 09:26:36;;;;;;;8.30;6.10;;;;;;;9.43;69.27;99619.64;1717793;83;22210;-74
2021/04/17 09:29:14;;;;;;;8.33;5.87;;;;;;;9.32;69.67;99613.30;1718734;83;21183;-74
2021/04/17 09:31:45;;;;;;;7.83;6.17;;;;;;;9.32;69.88;99617.25;1738657;81;21647;-74
2021/04/17 09:34:15;;;;;;;8.13;5.50;;;;;;;9.30;70.06;99616.98;1729841;81;21696;-74
2021/04/17 09:36:43;;;;;;;8.15;5.50;;;;;;;9.38;69.80;99618.62;1727872;83;21180;-74
2021/04/17 09:39:30;;;;;;;9.20;5.33;;;;;;;9.49;69.28;99612.63;1727875;83;21732;-74
2021/04/17 09:42:04;;;;;;;6.45;5.15;;;;;;;9.38;68.88;99616.47;1727828;83;21160;-73
2021/04/17 09:44:46;;;;;;;8.00;5.10;;;;;;;9.24;69.04;99614.75;1733635;82;21274;-73
2021/04/17 09:47:15;;;;;;;6.78;5.30;;;;;;;9.17;69.21;99626.20;1715891;83;21305;-73
2021/04/17 09:49:46;;;;;;;6.67;5.00;;;;;;;9.06;69.63;99628.70;1708880;83;21612;-73
2021/04/17 09:52:18;;;;;;;13.32;8.40;;;;;;;9.01;69.79;99619.76;1717048;83;21353;-72
2021/04/17 09:54:44;;;;;;;13.70;7.67;;;;;;;8.77;69.73;99583.52;1721765;83;21149;-72
2021/04/17 09:57:11;;;;;;;10.10;5.80;;;;;;;9.17;69.89;99627.03;1731478;83;21597;-72
2021/04/17 09:59:42;;;;;;;6.80;5.12;;;;;;;9.16;69.76;99629.78;1730502;83;21182;-72
2021/04/17 10:02:09;;;;;;;7.05;5.00;;;;;;;9.10;69.76;99634.14;1668825;85;21147;-73
2021/04/17 10:04:50;;;;;;;7.37;5.53;;;;;;;9.06;69.95;99632.66;1701985;84;21293;-73
2021/04/17 10:07:19;;;;;;;7.12;5.60;;;;;;;8.97;70.15;99636.25;1692678;84;21308;-72
2021/04/17 10:10:06;;;;;;;8.85;6.97;;;;;;;8.94;70.56;99641.74;1688694;85;21642;-72
2021/04/17 10:12:56;;;;;;;10.00;6.62;;;;;;;9.08;70.62;99642.61;1711835;83;21625;-73
2021/04/17 10:15:28;;;;;;;13.53;7.53;;;;;;;9.07;71.01;99646.22;1683182;85;21167;-73
2021/04/17 10:18:01;;;;;;;9.67;6.57;;;;;;;8.97;71.33;99648.13;1696326;84;21309;-73
2021/04/17 10:20:30;;;;;;;8.63;6.28;;;;;;;8.88;71.50;99656.64;1682887;85;21309;-73
2021/04/17 10:23:02;;;;;;;9.98;7.35;;;;;;;8.87;71.34;99656.27;1647322;86;21337;-72
2021/04/17 10:25:46;;;;;;;11.88;7.20;;;;;;;8.95;71.23;99655.31;1685929;84;21195;-73
2021/04/17 10:28:23;;;;;;;8.98;7.10;;;;;;;9.12;70.89;99650.23;1691377;84;21139;-72
2021/04/17 10:31:08;;;;;;;8.78;6.28;;;;;;;9.11;71.27;99656.45;1662756;86;21172;-72
2021/04/17 10:33:42;;;;;;;8.68;6.67;;;;;;;9.08;71.55;99653.16;1738087;82;21304;-73
2021/04/17 10:36:20;;;;;;;8.15;6.75;;;;;;;9.06;71.95;99651.95;1745349;82;21314;-73
2021/04/17 10:38:50;;;;;;;20.05;15.00;;;;;;;9.20;72.03;99653.69;1681395;85;21191;-73
2021/04/17 10:41:29;;;;;;;11.30;8.13;;;;;;;9.20;72.37;99670.84;1688158;84;21148;-73
2021/04/17 10:44:10;;;;;;;9.43;7.33;;;;;;;9.12;72.64;99661.28;1698650;84;21204;-74
2021/04/17 10:46:46;;;;;;;10.23;8.10;;;;;;;9.10;72.90;99661.84;1677946;84;21155;-72
2021/04/17 10:49:35;;;;;;;11.55;8.80;;;;;;;9.16;72.90;99665.39;1725674;83;21328;-72
2021/04/17 10:52:08;;;;;;;10.03;7.35;;;;;;;9.08;73.17;99670.31;1747906;82;21159;-73
2021/04/17 10:54:54;;;;;;;10.48;8.25;;;;;;;8.97;73.49;99670.54;1752487;82;21194;-73
2021/04/17 10:57:21;;;;;;;11.75;8.95;;;;;;;9.06;73.34;99679.66;1755620;82;21603;-73
2021/04/17 11:00:08;;;;;;;12.82;10.35;;;;;;;9.05;73.60;99678.44;1755321;82;21190;-73
2021/04/17 11:02:38;;;;;;;13.40;9.53;;;;;;;8.97;73.88;99682.41;1725760;83;21134;-73
2021/04/17 11:05:07;;;;;;;13.40;8.13;;;;;;;9.02;74.13;99680.32;1747277;82;21147;-73
2021/04/17 11:07:38;;;;;;;13.28;8.85;;;;;;;9.17;74.04;99681.61;1720884;82;21195;-73
2021/04/17 11:10:09;;;;;;;12.35;9.83;;;;;;;9.16;74.31;99679.91;1749417;82;21211;-73
2021/04/17 11:12:37;;;;;;;10.85;8.40;;;;;;;9.14;74.35;99678.70;1683031;85;21358;-73
2021/04/17 11:18:18;;;;;;;12.58;9.38;;;;;;;9.41;73.98;99675.63;1811876;79;22900;-72
2021/04/17 11:20:58;;;;;;;11.45;8.58;;;;;;;9.36;74.18;99678.59;1776403;80;21166;-73
2021/04/17 11:23:35;;;;;;;9.90;7.85;;;;;;;9.36;74.20;99677.28;1755530;80;21154;-73
2021/04/17 11:26:08;;;;;;;11.97;8.53;;;;;;;9.48;73.97;99676.92;1706528;84;21330;-73
2021/04/17 11:28:39;;;;;;;12.40;8.93;;;;;;;9.66;73.64;99683.59;1678257;85;21674;-75
2021/04/17 11:31:09;;;;;;;10.58;8.58;;;;;;;9.68;73.60;99694.91;1700445;84;21138;-75
2021/04/17 11:33:36;;;;;;;10.65;8.25;;;;;;;9.70;73.36;99680.28;1701395;84;21469;-74
2021/04/17 11:36:08;;;;;;;12.63;8.83;;;;;;;9.71;73.03;99685.94;1707025;83;21177;-72
2021/04/17 11:38:35;;;;;;;9.70;8.33;;;;;;;9.84;72.58;99695.19;1689977;84;21286;-73
2021/04/17 11:41:06;;;;;;;13.43;9.05;;;;;;;9.86;72.43;99680.55;1709441;84;21192;-73
2021/04/17 11:43:33;;;;;;;14.20;9.28;;;;;;;9.82;72.54;99681.23;1727959;82;21159;-73
2021/04/17 11:46:01;;;;;;;11.97;8.83;;;;;;;9.80;72.78;99685.79;1735615;83;21755;-73
2021/04/17 11:48:28;;;;;;;13.53;10.28;;;;;;;9.92;72.33;99686.25;1735584;83;21202;-75
2021/04/17 11:50:56;;;;;;;13.08;10.23;;;;;;;9.95;72.00;99681.27;1735449;83;21166;-73
2021/04/17 11:53:24;;;;;;;13.83;9.40;;;;;;;9.88;72.27;99686.09;1733780;83;21134;-73
2021/04/17 11:55:51;;;;;;;12.58;9.43;;;;;;;9.78;72.37;99689.86;1735519;83;21721;-73
2021/04/17 11:58:22;;;;;;;12.95;9.75;;;;;;;9.83;72.44;99694.81;1735505;83;21611;-73
2021/04/17 12:00:49;;;;;;;12.73;9.20;;;;;;;9.83;72.44;99690.39;1727622;83;21631;-73
2021/04/17 12:03:23;;;;;;;12.00;8.80;;;;;;;9.74;72.18;99693.63;1706114;84;21473;-73
2021/04/17 12:05:52;;;;;;;10.30;8.08;;;;;;;9.65;72.24;99693.81;1706344;84;21330;-74
2021/04/17 12:08:20;;;;;;;12.93;9.00;;;;;;;9.72;72.05;99690.27;1705722;84;21258;-73